createdAt,value
2023-06-20T00:00:08.944Z,4.13
2023-06-20T00:02:35.465Z,4.60
2023-06-20T00:05:03.977Z,3.95
2023-06-20T00:07:30.609Z,4.15
2023-06-20T00:09:56.984Z,3.85
2023-06-20T00:12:23.441Z,4.13
2023-06-20T00:14:49.975Z,4.03
2023-06-20T00:17:16.437Z,3.83
2023-06-20T00:19:42.834Z,4.03
2023-06-20T00:22:09.354Z,4.00
2023-06-20T00:24:35.978Z,3.83
2023-06-20T00:27:03.903Z,4.25
2023-06-20T00:29:30.402Z,4.13
2023-06-20T00:31:56.770Z,4.10
2023-06-20T00:34:23.435Z,4.55
2023-06-20T00:36:49.893Z,4.50
2023-06-20T00:39:17.351Z,4.22
2023-06-20T00:41:43.746Z,4.00
2023-06-20T00:44:10.850Z,4.10
2023-06-20T00:46:39.505Z,3.67
2023-06-20T00:49:07.215Z,4.53
2023-06-20T00:51:35.160Z,4.43
2023-06-20T00:54:03.037Z,4.20
2023-06-20T00:56:30.369Z,3.58
2023-06-20T00:58:56.960Z,4.05
2023-06-20T01:01:23.552Z,4.28
2023-06-20T01:03:51.777Z,3.92
2023-06-20T01:06:35.165Z,5.03
2023-06-20T01:09:24.282Z,4.18
2023-06-20T01:12:01.881Z,3.80
2023-06-20T01:14:37.607Z,4.15
2023-06-20T01:17:19.276Z,3.63
2023-06-20T01:20:08.031Z,4.70
2023-06-20T01:23:30.176Z,3.88
2023-06-20T01:26:11.195Z,4.45
2023-06-20T01:28:51.576Z,4.82
2023-06-20T01:31:22.967Z,4.53
2023-06-20T01:33:54.440Z,5.43
2023-06-20T01:36:22.943Z,4.47
2023-06-20T01:38:55.799Z,4.85
2023-06-20T01:43:52.088Z,5.00
2023-06-20T01:46:20.893Z,4.93
2023-06-20T01:48:50.309Z,4.60
2023-06-20T01:51:18.219Z,4.53
2023-06-20T01:53:45.523Z,4.50
2023-06-20T01:56:13.369Z,4.70
2023-06-20T01:58:43.596Z,4.75
2023-06-20T02:01:10.956Z,4.80
2023-06-20T02:03:42.505Z,4.63
2023-06-20T02:06:11.103Z,4.00
2023-06-20T02:08:39.277Z,4.13
2023-06-20T02:11:07.567Z,4.50
2023-06-20T02:13:35.562Z,4.65
2023-06-20T02:16:03.985Z,4.72
2023-06-20T02:18:33.034Z,4.55
2023-06-20T02:21:04.511Z,4.15
2023-06-20T02:23:33.210Z,4.43
2023-06-20T02:26:08.641Z,4.43
2023-06-20T02:28:40.095Z,4.00
2023-06-20T02:31:10.213Z,4.68
2023-06-20T02:33:38.819Z,4.85
2023-06-20T02:36:07.405Z,5.00
2023-06-20T02:38:34.023Z,5.47
2023-06-20T02:41:00.453Z,5.38
2023-06-20T02:43:27.075Z,5.03
2023-06-20T02:46:04.256Z,5.50
2023-06-20T02:48:41.122Z,5.22
2023-06-20T02:51:16.758Z,5.18
2023-06-20T02:53:58.551Z,5.38
2023-06-20T02:56:30.241Z,5.45
2023-06-20T02:58:57.970Z,5.30
2023-06-20T03:01:30.329Z,4.55
2023-06-20T03:04:00.593Z,4.75
2023-06-20T03:06:29.643Z,4.72
2023-06-20T03:08:59.258Z,5.20
2023-06-20T03:11:25.759Z,5.30
2023-06-20T03:13:52.407Z,5.43
2023-06-20T03:16:18.999Z,5.53
2023-06-20T03:18:48.580Z,6.30
2023-06-20T03:21:28.039Z,5.07
2023-06-20T03:23:55.675Z,6.05
2023-06-20T03:26:23.055Z,5.55
2023-06-20T03:28:49.448Z,5.55
2023-06-20T03:31:16.058Z,5.38
2023-06-20T03:33:42.524Z,5.40
2023-06-20T03:36:11.198Z,5.45
2023-06-20T03:38:37.968Z,5.50
2023-06-20T03:41:04.329Z,5.20
2023-06-20T03:43:30.761Z,5.47
2023-06-20T03:45:57.188Z,6.40
2023-06-20T03:48:23.687Z,5.68
2023-06-20T03:50:50.078Z,5.63
2023-06-20T03:53:16.630Z,5.40
2023-06-20T03:55:43.042Z,5.63
2023-06-20T03:58:09.599Z,5.00
2023-06-20T04:00:36.039Z,5.53
2023-06-20T04:03:04.091Z,5.07
2023-06-20T04:05:30.689Z,5.55
2023-06-20T04:07:57.074Z,5.35
2023-06-20T04:10:23.636Z,5.28
2023-06-20T04:12:50.071Z,5.05
2023-06-20T04:15:16.574Z,5.30
2023-06-20T04:17:43.106Z,5.57
2023-06-20T04:20:14.245Z,5.65
2023-06-20T04:22:45.693Z,5.60
2023-06-20T04:25:15.917Z,5.57
2023-06-20T04:27:43.006Z,6.40
2023-06-20T04:30:10.032Z,5.88
2023-06-20T04:32:38.054Z,5.75
2023-06-20T04:35:05.447Z,5.78
2023-06-20T04:37:31.904Z,6.38
2023-06-20T04:39:58.474Z,5.75
2023-06-20T04:42:24.912Z,5.90
2023-06-20T04:44:51.382Z,5.50
2023-06-20T04:47:17.829Z,5.35
2023-06-20T04:49:44.607Z,5.32
2023-06-20T04:52:11.236Z,5.50
2023-06-20T04:54:37.634Z,5.75
2023-06-20T04:57:04.430Z,4.75
2023-06-20T04:59:30.909Z,5.35
2023-06-20T05:01:57.591Z,5.22
2023-06-20T05:04:24.168Z,6.00
2023-06-20T05:06:50.752Z,5.80
2023-06-20T05:09:18.095Z,5.90
2023-06-20T05:11:44.488Z,5.75
2023-06-20T05:14:10.874Z,5.70
2023-06-20T05:16:37.326Z,5.40
2023-06-20T05:19:03.762Z,5.20
2023-06-20T05:21:30.144Z,5.53
2023-06-20T05:23:56.625Z,5.70
2023-06-20T05:26:23.076Z,5.72
2023-06-20T05:28:49.504Z,5.22
2023-06-20T05:31:15.970Z,5.57
2023-06-20T05:33:42.412Z,5.72
2023-06-20T05:36:08.807Z,5.45
2023-06-20T05:38:36.613Z,5.10
2023-06-20T05:41:03.211Z,5.15
2023-06-20T05:43:30.121Z,5.18
2023-06-20T05:45:58.196Z,5.60
2023-06-20T05:48:26.244Z,4.90
2023-06-20T05:50:52.949Z,5.50
2023-06-20T05:53:21.918Z,5.50
2023-06-20T05:55:51.855Z,5.18
2023-06-20T05:58:22.025Z,5.45
2023-06-20T06:00:48.486Z,5.05
2023-06-20T06:03:15.157Z,5.30
2023-06-20T06:05:42.003Z,4.78
2023-06-20T06:08:08.437Z,5.25
2023-06-20T06:10:35.811Z,5.88
2023-06-20T06:13:02.218Z,5.45
2023-06-20T06:15:28.680Z,5.40
2023-06-20T06:17:55.101Z,4.38
2023-06-20T06:20:25.188Z,4.88
2023-06-20T06:22:52.162Z,4.70
2023-06-20T06:25:19.200Z,5.22
2023-06-20T06:27:45.777Z,5.78
2023-06-20T06:30:12.325Z,5.07
2023-06-20T06:32:39.170Z,5.00
2023-06-20T06:35:07.081Z,4.30
2023-06-20T06:37:33.814Z,4.35
2023-06-20T06:40:00.749Z,4.15
2023-06-20T06:42:27.848Z,4.40
2023-06-20T06:44:54.603Z,3.85
2023-06-20T06:47:21.053Z,4.35
2023-06-20T06:49:47.509Z,4.47
2023-06-20T06:52:14.182Z,4.78
2023-06-20T06:54:40.692Z,4.43
2023-06-20T06:57:07.235Z,4.88
2023-06-20T06:59:33.636Z,5.80
2023-06-20T07:02:00.134Z,4.22
2023-06-20T07:04:26.690Z,4.18
2023-06-20T07:06:53.298Z,4.65
2023-06-20T07:09:19.705Z,4.60
2023-06-20T07:11:46.130Z,4.70
2023-06-20T07:14:12.524Z,4.97
2023-06-20T07:16:48.891Z,5.38
2023-06-20T07:19:26.020Z,4.38
2023-06-20T07:21:52.635Z,4.28
2023-06-20T07:24:19.217Z,4.90
2023-06-20T07:26:45.727Z,4.75
2023-06-20T07:29:12.131Z,4.63
2023-06-20T07:31:38.568Z,5.80
2023-06-20T07:34:05.028Z,6.45
2023-06-20T07:36:31.415Z,5.25
2023-06-20T07:38:57.819Z,5.03
2023-06-20T07:41:24.220Z,4.35
2023-06-20T07:43:50.643Z,5.10
2023-06-20T07:46:17.154Z,4.88
2023-06-20T07:48:44.724Z,5.43
2023-06-20T07:51:11.236Z,4.63
2023-06-20T07:53:37.617Z,5.00
2023-06-20T07:56:06.760Z,5.43
2023-06-20T07:58:33.148Z,5.40
2023-06-20T08:01:01.216Z,6.07
2023-06-20T08:03:27.962Z,4.88
2023-06-20T08:05:54.591Z,4.90
2023-06-20T08:08:21.049Z,5.07
2023-06-20T08:10:47.431Z,4.63
2023-06-20T08:13:13.902Z,4.80
2023-06-20T08:15:40.393Z,4.78
2023-06-20T08:18:06.946Z,5.25
2023-06-20T08:20:33.617Z,5.30
2023-06-20T08:23:00.046Z,4.88
2023-06-20T08:25:26.824Z,4.45
2023-06-20T08:28:02.064Z,5.07
2023-06-20T08:30:39.845Z,5.03
2023-06-20T08:33:06.248Z,4.63
2023-06-20T08:35:32.750Z,4.82
2023-06-20T08:37:59.500Z,4.60
2023-06-20T08:40:26.266Z,4.75
2023-06-20T08:42:57.073Z,5.13
2023-06-20T08:45:24.058Z,4.10
2023-06-20T08:47:50.679Z,4.43
2023-06-20T08:50:17.283Z,3.85
2023-06-20T08:52:50.743Z,5.05
2023-06-20T08:55:17.793Z,4.40
2023-06-20T08:57:47.514Z,4.30
2023-06-20T09:00:22.098Z,4.53
2023-06-20T09:02:52.570Z,4.63
2023-06-20T09:05:19.507Z,3.78
2023-06-20T09:07:46.576Z,4.30
2023-06-20T09:10:18.539Z,4.47
2023-06-20T09:12:53.025Z,3.90
2023-06-20T09:15:23.909Z,4.72
2023-06-20T09:18:00.931Z,3.90
2023-06-20T09:20:29.626Z,4.38
2023-06-20T09:22:56.507Z,4.13
2023-06-20T09:25:24.902Z,4.45
2023-06-20T09:27:52.685Z,3.58
2023-06-20T09:30:19.988Z,4.10
2023-06-20T09:32:47.837Z,4.13
2023-06-20T09:35:15.589Z,3.40
2023-06-20T09:37:44.134Z,3.63
2023-06-20T09:40:12.764Z,4.22
2023-06-20T09:42:41.297Z,4.05
2023-06-20T09:45:09.026Z,3.95
2023-06-20T09:47:37.969Z,3.40
2023-06-20T09:50:24.500Z,3.53
2023-06-20T09:52:55.879Z,3.85
2023-06-20T09:55:24.866Z,4.70
2023-06-20T09:57:54.754Z,4.32
2023-06-20T10:00:28.245Z,3.83
2023-06-20T10:02:59.747Z,3.70
2023-06-20T10:05:28.438Z,4.20
2023-06-20T10:08:01.284Z,3.53
2023-06-20T10:10:28.190Z,3.00
